createdAt,value
2023-03-11T00:02:03.601Z,3.75
2023-03-11T00:07:25.806Z,3.65
2023-03-11T00:12:47.971Z,3.50
2023-03-11T00:18:10.652Z,6.05
2023-03-11T00:23:33.292Z,4.93
2023-03-11T00:28:56.286Z,3.80
2023-03-11T00:34:18.853Z,4.28
2023-03-11T00:39:40.814Z,3.70
2023-03-11T00:45:03.164Z,3.70
2023-03-11T00:50:31.444Z,3.83
2023-03-11T00:55:53.739Z,3.80
2023-03-11T01:01:19.086Z,4.32
2023-03-11T01:06:45.659Z,3.70
2023-03-11T01:12:08.876Z,3.80
2023-03-11T01:17:31.106Z,3.70
2023-03-11T01:22:53.286Z,4.28
2023-03-11T01:28:16.644Z,4.53
2023-03-11T01:33:38.787Z,5.07
2023-03-11T01:39:01.324Z,3.80
2023-03-11T01:44:24.639Z,3.95
2023-03-11T01:49:49.483Z,3.90
2023-03-11T01:55:14.265Z,5.60
2023-03-11T02:00:38.765Z,4.50
2023-03-11T02:06:04.861Z,4.30
2023-03-11T02:11:31.470Z,6.97
2023-03-11T02:16:54.814Z,3.90
2023-03-11T02:22:18.825Z,4.88
2023-03-11T02:27:45.775Z,3.80
2023-03-11T02:33:08.584Z,3.90
2023-03-11T02:38:30.727Z,4.68
2023-03-11T02:43:53.136Z,4.20
2023-03-11T02:49:17.199Z,4.30
2023-03-11T02:54:41.813Z,4.30
2023-03-11T03:00:11.563Z,4.30
2023-03-11T03:05:35.415Z,4.00
2023-03-11T03:11:00.406Z,4.97
2023-03-11T03:16:22.614Z,4.82
2023-03-11T03:21:44.744Z,5.68
2023-03-11T03:27:07.386Z,5.07
2023-03-11T03:32:30.153Z,4.60
2023-03-11T03:37:53.224Z,4.75
2023-03-11T03:43:16.438Z,4.30
2023-03-11T03:48:40.350Z,5.90
2023-03-11T03:54:03.409Z,4.55
2023-03-11T03:59:29.494Z,4.40
2023-03-11T04:04:54.903Z,4.60
2023-03-11T04:10:17.658Z,4.20
2023-03-11T04:15:44.301Z,4.68
2023-03-11T04:21:12.461Z,5.00
2023-03-11T04:26:34.764Z,7.05
2023-03-11T04:31:59.764Z,3.83
2023-03-11T04:37:21.855Z,4.90
2023-03-11T04:42:44.817Z,4.32
2023-03-11T04:48:07.461Z,3.97
2023-03-11T04:53:30.699Z,4.20
2023-03-11T04:58:53.499Z,4.40
2023-03-11T05:04:17.952Z,3.45
2023-03-11T05:09:42.896Z,4.72
2023-03-11T05:15:08.904Z,4.00
2023-03-11T05:20:33.011Z,3.75
2023-03-11T05:26:01.802Z,3.90
2023-03-11T05:31:25.264Z,3.67
2023-03-11T05:36:47.326Z,3.20
2023-03-11T05:42:09.817Z,3.65
2023-03-11T05:47:31.911Z,5.60
2023-03-11T05:52:53.814Z,5.85
2023-03-11T05:58:17.253Z,3.00
2023-03-11T06:03:40.167Z,3.03
2023-03-11T06:09:04.595Z,3.05
2023-03-11T06:14:29.413Z,3.80
2023-03-11T06:19:51.325Z,2.60
2023-03-11T06:25:13.363Z,12.80
2023-03-11T06:30:36.865Z,15.32
2023-03-11T06:36:08.765Z,19.05
2023-03-11T06:41:33.268Z,24.52
2023-03-11T06:46:56.138Z,26.40
2023-03-11T06:52:18.226Z,30.40
2023-03-11T06:57:40.449Z,14.15
2023-03-11T07:03:04.309Z,23.58
2023-03-11T07:08:26.995Z,13.63
2023-03-11T07:13:49.416Z,17.45
2023-03-11T07:19:13.211Z,18.58
2023-03-11T07:24:48.824Z,9.75
2023-03-11T07:30:13.391Z,11.23
2023-03-11T07:35:36.525Z,14.90
2023-03-11T07:41:00.391Z,11.63
2023-03-11T07:46:24.352Z,23.10
2023-03-11T07:51:46.616Z,12.75
2023-03-11T07:57:09.867Z,17.52
2023-03-11T08:02:35.148Z,18.67
2023-03-11T08:07:57.422Z,13.38
2023-03-11T08:13:21.165Z,14.60
2023-03-11T08:18:44.031Z,20.13
2023-03-11T08:24:17.024Z,19.58
2023-03-11T08:29:45.253Z,12.60
2023-03-11T08:35:07.203Z,12.45
2023-03-11T08:40:29.234Z,11.45
2023-03-11T08:45:50.797Z,13.40
2023-03-11T08:51:13.802Z,12.73
2023-03-11T08:56:35.778Z,14.60
2023-03-11T09:01:57.712Z,11.88
2023-03-11T09:07:19.889Z,12.48
2023-03-11T09:12:42.156Z,10.63
2023-03-11T09:18:04.621Z,10.20
2023-03-11T09:23:26.733Z,10.70
2023-03-11T09:28:49.664Z,10.38
2023-03-11T09:34:16.051Z,10.60
2023-03-11T09:39:41.880Z,7.45
2023-03-11T09:45:19.089Z,8.80
2023-03-11T09:51:11.237Z,10.00
2023-03-11T09:56:36.132Z,11.23
2023-03-11T10:01:59.378Z,7.32
2023-03-11T10:07:48.079Z,8.95
2023-03-11T10:13:27.978Z,7.35
2023-03-11T10:19:01.009Z,8.35
2023-03-11T10:24:34.617Z,11.80
2023-03-11T10:30:28.381Z,7.85
2023-03-11T10:35:56.183Z,5.68
2023-03-11T10:41:33.305Z,7.22
2023-03-11T10:46:55.069Z,6.78
2023-03-11T10:52:17.153Z,9.77
2023-03-11T10:57:40.350Z,5.20
2023-03-11T11:03:05.070Z,6.35
2023-03-11T11:08:27.307Z,4.68
2023-03-11T11:14:00.683Z,5.35
2023-03-11T11:19:23.635Z,5.97
2023-03-11T11:24:47.562Z,3.85
2023-03-11T11:30:09.467Z,6.47
2023-03-11T11:35:31.817Z,4.25
2023-03-11T11:40:55.866Z,4.65
2023-03-11T11:46:25.844Z,4.53
2023-03-11T11:52:01.275Z,3.53
2023-03-11T11:57:25.032Z,5.18
2023-03-11T12:03:05.405Z,5.30
2023-03-11T12:08:45.164Z,5.20
2023-03-11T12:14:33.101Z,5.35
2023-03-11T12:20:03.075Z,5.28
2023-03-11T12:25:33.210Z,11.52
2023-03-11T12:30:59.524Z,4.30
2023-03-11T12:36:31.070Z,6.82
2023-03-11T12:42:14.675Z,5.40
2023-03-11T12:47:36.988Z,4.38
2023-03-11T12:52:58.683Z,6.10
2023-03-11T12:58:48.770Z,6.97
2023-03-11T13:04:40.359Z,7.88
2023-03-11T13:10:08.357Z,11.55
2023-03-11T13:15:35.837Z,4.70
2023-03-11T13:21:02.417Z,7.38
2023-03-11T13:26:33.707Z,6.40
2023-03-11T13:32:12.632Z,6.65
2023-03-11T13:38:02.106Z,8.35
2023-03-11T13:43:26.286Z,7.97
2023-03-11T13:48:51.489Z,8.90
2023-03-11T13:54:33.300Z,7.57
2023-03-11T13:59:57.137Z,10.65
2023-03-11T14:05:30.601Z,4.82
2023-03-11T14:11:02.092Z,10.43
2023-03-11T14:16:35.573Z,9.68
2023-03-11T14:21:57.178Z,7.47
2023-03-11T14:27:19.380Z,24.77
2023-03-11T14:32:40.835Z,14.60
2023-03-11T14:38:02.846Z,13.88
2023-03-11T14:43:25.798Z,12.43
2023-03-11T14:48:48.034Z,15.52
2023-03-11T14:54:18.813Z,13.80
2023-03-11T14:59:42.111Z,15.48
2023-03-11T15:05:15.499Z,13.20
2023-03-11T15:10:37.669Z,13.73
2023-03-11T15:16:01.024Z,15.30
2023-03-11T15:21:25.470Z,15.75
2023-03-11T15:27:09.488Z,15.13
2023-03-11T15:32:31.421Z,16.17
2023-03-11T15:38:23.965Z,15.50
2023-03-11T15:43:49.469Z,16.42
2023-03-11T15:49:14.287Z,16.10
2023-03-11T15:54:36.771Z,18.88
2023-03-11T16:00:02.511Z,18.08
2023-03-11T16:05:29.504Z,16.08
2023-03-11T16:10:51.265Z,17.15
2023-03-11T16:16:18.029Z,14.88
2023-03-11T16:21:50.760Z,12.88
2023-03-11T16:32:59.492Z,14.00
2023-03-11T16:38:30.017Z,14.45
2023-03-11T16:43:52.270Z,16.02
2023-03-11T16:49:21.836Z,13.70
2023-03-11T16:54:46.578Z,14.48
2023-03-11T17:00:11.858Z,13.80
2023-03-11T17:05:34.406Z,13.68
2023-03-11T17:10:56.645Z,14.65
2023-03-11T17:16:19.085Z,15.10
2023-03-11T17:21:41.533Z,17.08
2023-03-11T17:27:04.273Z,14.90
2023-03-11T17:32:26.496Z,13.48
2023-03-11T17:37:48.634Z,16.65
2023-03-11T17:43:10.686Z,15.27
2023-03-11T17:48:32.989Z,15.20
2023-03-11T17:53:56.244Z,13.48
2023-03-11T17:59:18.560Z,16.55
2023-03-11T18:04:42.549Z,15.05
2023-03-11T18:10:04.986Z,15.18
2023-03-11T18:15:27.073Z,14.75
2023-03-11T18:20:49.258Z,15.32
2023-03-11T18:26:45.376Z,10.88
2023-03-11T18:32:07.551Z,14.40
2023-03-11T18:37:29.980Z,11.88
2023-03-11T18:42:55.678Z,12.98
2023-03-11T18:48:17.974Z,14.88
2023-03-11T18:53:42.392Z,12.10
2023-03-11T18:59:05.143Z,11.85
2023-03-11T19:04:29.168Z,10.77
2023-03-11T19:09:53.623Z,10.68
2023-03-11T19:15:19.920Z,11.80
2023-03-11T19:20:42.572Z,12.30
2023-03-11T19:26:05.692Z,11.52
2023-03-11T19:31:30.951Z,8.20
2023-03-11T19:36:53.108Z,10.98
2023-03-11T19:42:15.354Z,12.75
2023-03-11T19:47:39.118Z,11.18
2023-03-11T19:53:04.494Z,12.52
2023-03-11T19:58:30.427Z,13.70
2023-03-11T20:03:53.385Z,11.68
2023-03-11T20:09:17.375Z,12.98
2023-03-11T20:14:40.807Z,14.52
2023-03-11T20:20:05.196Z,14.07
2023-03-11T20:25:30.236Z,13.57
2023-03-11T20:30:52.544Z,13.60
2023-03-11T20:36:27.089Z,13.77
2023-03-11T20:41:49.161Z,16.27
2023-03-11T20:47:11.969Z,13.57
2023-03-11T20:52:36.328Z,14.65
2023-03-11T20:57:58.462Z,16.75
2023-03-11T21:03:20.286Z,13.45
2023-03-11T21:08:44.947Z,13.13
2023-03-11T21:14:07.776Z,12.20
2023-03-11T21:19:29.785Z,6.43
2023-03-11T21:24:55.917Z,12.90
2023-03-11T21:30:18.514Z,16.08
2023-03-11T21:35:40.821Z,12.35
2023-03-11T21:41:10.930Z,13.13
2023-03-11T21:46:33.970Z,13.18
2023-03-11T21:51:55.951Z,13.55
2023-03-11T21:57:18.028Z,14.73
2023-03-11T22:02:40.065Z,15.25
2023-03-11T22:08:02.399Z,15.15
2023-03-11T22:13:25.859Z,12.13
2023-03-11T22:18:48.294Z,11.38
2023-03-11T22:24:10.850Z,17.15
2023-03-11T22:29:33.134Z,16.30
2023-03-11T22:34:55.878Z,15.77
2023-03-11T22:40:22.707Z,15.60
2023-03-11T22:45:47.832Z,18.63
2023-03-11T22:51:10.050Z,15.20
2023-03-11T22:56:32.662Z,11.65
2023-03-11T23:01:54.966Z,19.15
2023-03-11T23:07:17.428Z,17.73
2023-03-11T23:12:39.729Z,18.02
2023-03-11T23:18:04.863Z,15.10
2023-03-11T23:23:27.463Z,15.88
2023-03-11T23:28:54.341Z,19.40
2023-03-11T23:34:16.709Z,22.95
2023-03-11T23:39:39.471Z,17.27
2023-03-11T23:45:02.268Z,18.95
2023-03-11T23:50:24.782Z,17.38
2023-03-11T23:55:47.138Z,18.55
